Accueil
METAR-TAF:

METAR-TAF

Aéroports :

Saint-Sébastien, Espagne

Aéroport de Saint-Sébastien

latitude: 43-21N, longitude: 001-48W, altitude: 5 m

Observation

Le bulletin a été fait il y a 37 minutes, à 19:00 UTC
Vent 3 kt de nord/nord-est
Température 23°C
Humidité 73%
Pression 1016 hPa
Visibilité 10 km ou plus
pas de nuages en-dessous de 1500 mètres et pas de cumulonimbus.

METAR: LESO 241900Z 02003KT CAVOK 23/18 Q1016

Heure: 21:37 (19:37 UTC)

Prévision

Le bulletin a été fait il y a 2 heures et 37 minutes, à 17:00 UTC
Prévision valable du 24 à 18 UTC au 25 à 18 UTC
Vent 6 kt de direction variable
Visibilité 10 km ou plus
pas de nuages en-dessous de 1500 mètres et pas de cumulonimbus.

TAF: LESO 241700Z 2418/2518 VRB06KT CAVOK TX30/2514Z TN16/2504Z

Observations et prévisions météorologiques de plus de 4000 aéroports (messages METAR et TAF).

Les stations disponibles sont représentées par des disques jaunes et rouges sur la carte.

Passer la souris dessus pour voir le nom de la station.

Cliquer dessus pour voir les observations et prévisions météorologiques.

Pour changer de carte: cliquez sur les boutons verts avec une croix noire pour zoomer, sur le bouton vert avec un tiret pour effectuer un zoom arrière, ou sur les flèches vertes pour les cartes adjacentes.


METAR-TAF: